首页
METAR-TAF:

METAR-TAF

机场 :

达累斯萨拉姆, 坦桑尼亚

朱利叶斯·尼雷尔国际机场

纬度: 06-52S, 经度: 039-12E, 海拔: 55米

当前天气观测

该预报发布于27分钟前的14:00 UTC
风速15节,风向东北
温度 28°C
湿度 79%
气压 1000 hPa
能见度10公里或以上
多云层高于2000英尺
多云层高于8000英尺

METAR: HTDA 221400Z 05015KT 9999 BKN020 BKN080 28/24 Q10008 NOSIG

时间: 17:27 (14:27 UTC)

预报

该预报发布于15小时和27分钟前的23:00 UTC
预报有效从22日的 00点(UTC)到 23日的 06点(UTC)
风速5节,风向北转东北
能见度10公里或以上
散云层高于1600英尺
成为
从 22日的 06点(UTC)到 22日的 09点(UTC)
风速15节,风向北转西北
多云层高于1700英尺
成为
从 22日的 18点(UTC)到 22日的 21点(UTC)
风速5节,风向北转东北
散云层高于1900英尺

TAF: HTDA 212300Z 2200/2306 03005KT 9999 SCT016 BECMG 2206/2209 34015KT BKN017 BECMG 2218/2221 02005KT SCT019

超过4000个机场的气象观测和天气预报(METAR&TAF报告)。

可查询的气象台以黄色和红色小点在地图上表示。

将鼠标移到小点上方,可查看气象台名称。

然后点击查看天气观测和预报。

如需切换地图:点击带黑十字的绿色按钮放大地图;点击带横线的绿色按钮缩小地图;或者点击绿色箭头查看邻近地区的地图。


METAR-TAF: